createdAt,value
2023-05-13T00:00:18.242Z,17.24
2023-05-13T00:02:45.890Z,17.28
2023-05-13T00:05:13.149Z,17.09
2023-05-13T00:07:41.734Z,17.48
2023-05-13T00:10:09.452Z,18.12
2023-05-13T00:12:37.195Z,17.45
2023-05-13T00:15:04.605Z,17.82
2023-05-13T00:17:32.422Z,16.98
2023-05-13T00:19:59.678Z,17.36
2023-05-13T00:22:26.818Z,16.51
2023-05-13T00:24:54.261Z,16.84
2023-05-13T00:27:21.458Z,16.69
2023-05-13T00:29:48.941Z,16.49
2023-05-13T00:32:16.549Z,16.64
2023-05-13T00:34:43.732Z,16.83
2023-05-13T00:37:12.179Z,17.16
2023-05-13T00:39:39.673Z,17.20
2023-05-13T00:42:06.848Z,18.12
2023-05-13T00:44:34.794Z,16.76
2023-05-13T00:47:02.328Z,16.89
2023-05-13T00:49:29.506Z,16.38
2023-05-13T00:51:56.706Z,16.18
2023-05-13T00:54:24.162Z,16.72
2023-05-13T00:56:56.573Z,17.62
2023-05-13T00:59:24.894Z,17.10
2023-05-13T01:01:52.250Z,16.35
2023-05-13T01:04:25.327Z,16.83
2023-05-13T01:07:04.914Z,16.80
2023-05-13T01:09:53.354Z,16.95
2023-05-13T01:12:29.734Z,17.82
2023-05-13T01:15:07.541Z,16.44
2023-05-13T01:17:41.775Z,17.03
2023-05-13T01:20:09.341Z,17.03
2023-05-13T01:22:36.937Z,17.67
2023-05-13T01:25:04.978Z,17.33
2023-05-13T01:27:32.490Z,17.51
2023-05-13T01:30:00.615Z,17.17
2023-05-13T01:32:28.084Z,17.73
2023-05-13T01:34:55.429Z,17.57
2023-05-13T01:37:23.027Z,17.32
2023-05-13T01:39:50.642Z,17.74
2023-05-13T01:42:17.952Z,17.99
2023-05-13T01:44:45.548Z,17.75
2023-05-13T01:47:12.725Z,17.54
2023-05-13T01:49:39.885Z,17.22
2023-05-13T01:52:07.405Z,17.68
2023-05-13T01:54:34.576Z,17.64
2023-05-13T01:57:03.295Z,17.47
2023-05-13T01:59:30.928Z,17.37
2023-05-13T02:01:59.380Z,16.93
2023-05-13T02:04:27.445Z,16.56
2023-05-13T02:06:54.755Z,16.40
2023-05-13T02:09:22.564Z,16.59
2023-05-13T02:11:50.060Z,17.29
2023-05-13T02:14:17.297Z,17.42
2023-05-13T02:16:44.543Z,16.84
2023-05-13T02:19:12.219Z,16.92
2023-05-13T02:21:39.785Z,17.27
2023-05-13T02:24:07.433Z,17.36
2023-05-13T02:26:34.671Z,17.25
2023-05-13T02:29:02.106Z,17.29
2023-05-13T02:31:29.686Z,17.56
2023-05-13T02:33:56.931Z,17.27
2023-05-13T02:36:24.910Z,17.01
2023-05-13T02:38:52.426Z,17.18
2023-05-13T02:41:19.768Z,16.83
2023-05-13T02:43:47.741Z,16.73
2023-05-13T02:46:15.684Z,17.43
2023-05-13T02:48:44.184Z,16.87
2023-05-13T02:51:11.620Z,16.63
2023-05-13T02:53:39.369Z,17.40
2023-05-13T02:56:07.729Z,16.91
2023-05-13T02:58:35.957Z,16.71
2023-05-13T03:01:03.221Z,16.29
2023-05-13T03:03:30.762Z,16.09
2023-05-13T03:05:58.320Z,16.73
2023-05-13T03:08:25.656Z,16.44
2023-05-13T03:10:54.058Z,16.45
2023-05-13T03:13:21.646Z,16.98
2023-05-13T03:15:48.892Z,15.97
2023-05-13T03:18:16.166Z,15.88
2023-05-13T03:20:43.594Z,16.44
2023-05-13T03:23:11.020Z,16.71
2023-05-13T03:25:38.184Z,17.18
2023-05-13T03:28:06.642Z,16.96
2023-05-13T03:30:34.627Z,17.00
2023-05-13T03:33:02.256Z,16.29
2023-05-13T03:35:29.786Z,16.06
2023-05-13T03:37:56.959Z,16.79
2023-05-13T03:40:24.509Z,17.14
2023-05-13T03:42:52.033Z,17.29
2023-05-13T03:45:19.535Z,16.43
2023-05-13T03:47:47.894Z,16.11
2023-05-13T03:50:15.944Z,15.51
2023-05-13T03:52:45.534Z,15.94
2023-05-13T03:55:15.257Z,16.62
2023-05-13T03:57:45.029Z,16.91
2023-05-13T04:00:12.592Z,15.67
2023-05-13T04:02:41.884Z,16.04
2023-05-13T04:05:10.094Z,16.30
2023-05-13T04:07:37.262Z,15.69
2023-05-13T04:10:04.641Z,15.44
2023-05-13T04:12:33.400Z,15.99
2023-05-13T04:15:00.940Z,16.26
2023-05-13T04:17:28.833Z,16.18
2023-05-13T04:19:56.339Z,16.20
2023-05-13T04:22:24.277Z,17.40
2023-05-13T04:24:56.381Z,15.92
2023-05-13T04:27:24.299Z,16.24
2023-05-13T04:29:52.314Z,16.28
2023-05-13T04:32:22.123Z,16.33
2023-05-13T04:34:50.325Z,16.16
2023-05-13T04:37:17.536Z,16.00
2023-05-13T04:39:48.097Z,16.48
2023-05-13T04:42:16.678Z,16.08
2023-05-13T04:44:43.880Z,16.50
2023-05-13T04:47:11.293Z,16.89
2023-05-13T04:49:38.764Z,17.17
2023-05-13T04:52:06.749Z,16.68
2023-05-13T04:54:35.944Z,16.78
2023-05-13T04:57:03.582Z,16.67
2023-05-13T04:59:31.144Z,16.22
2023-05-13T05:01:58.459Z,16.36
2023-05-13T05:04:26.025Z,16.72
2023-05-13T05:06:53.626Z,16.63
2023-05-13T05:09:20.840Z,15.81
2023-05-13T05:11:50.483Z,15.45
2023-05-13T05:14:18.279Z,15.48
2023-05-13T05:16:46.137Z,15.07
2023-05-13T05:19:14.684Z,14.87
2023-05-13T05:21:41.998Z,15.37
2023-05-13T05:24:09.563Z,15.97
2023-05-13T05:26:37.004Z,15.65
2023-05-13T05:29:05.678Z,15.44
2023-05-13T05:31:33.487Z,15.82
2023-05-13T05:34:01.766Z,16.18
2023-05-13T05:36:29.217Z,16.42
2023-05-13T05:38:56.416Z,16.47
2023-05-13T05:41:25.937Z,16.80
2023-05-13T05:43:53.105Z,16.41
2023-05-13T05:46:20.400Z,16.24
2023-05-13T05:48:48.597Z,16.19
2023-05-13T05:51:15.757Z,15.91
2023-05-13T05:53:43.156Z,15.17
2023-05-13T05:56:11.162Z,15.85
2023-05-13T05:58:38.318Z,15.29
2023-05-13T06:01:06.001Z,15.95
2023-05-13T06:03:33.872Z,15.60
2023-05-13T06:06:01.260Z,15.16
2023-05-13T06:08:30.978Z,15.71
2023-05-13T06:10:58.629Z,15.20
2023-05-13T06:13:26.323Z,15.28
2023-05-13T06:15:53.601Z,14.79
2023-05-13T06:18:21.121Z,15.36
2023-05-13T06:20:48.294Z,16.12
2023-05-13T06:23:15.675Z,16.58
2023-05-13T06:25:43.203Z,16.10
2023-05-13T06:28:10.848Z,15.94
2023-05-13T06:30:38.710Z,16.52
2023-05-13T06:33:06.412Z,16.45
2023-05-13T06:35:33.650Z,16.15
2023-05-13T06:38:01.199Z,15.72
2023-05-13T06:40:29.675Z,15.87
2023-05-13T06:42:56.918Z,16.66
2023-05-13T06:45:27.904Z,16.78
2023-05-13T06:47:55.570Z,16.23
2023-05-13T06:50:22.899Z,16.90
2023-05-13T06:52:50.319Z,16.13
2023-05-13T06:55:19.117Z,16.00
2023-05-13T06:57:47.294Z,16.68
2023-05-13T07:00:15.136Z,16.33
2023-05-13T07:02:42.749Z,16.24
2023-05-13T07:05:11.391Z,15.83
2023-05-13T07:07:38.839Z,15.92
2023-05-13T07:10:06.459Z,15.24
2023-05-13T07:12:33.709Z,15.82
2023-05-13T07:15:00.855Z,16.14
2023-05-13T07:17:28.426Z,16.19
2023-05-13T07:19:55.688Z,16.13
2023-05-13T07:22:22.841Z,16.28
2023-05-13T07:24:50.284Z,17.17
2023-05-13T07:27:17.610Z,16.98
2023-05-13T07:29:44.813Z,16.81
2023-05-13T07:32:12.778Z,16.29
2023-05-13T07:34:40.198Z,15.89
2023-05-13T07:37:07.476Z,16.68
2023-05-13T07:39:35.422Z,15.85
2023-05-13T07:42:03.437Z,16.35
2023-05-13T07:44:31.084Z,16.54
2023-05-13T07:46:58.584Z,16.89
2023-05-13T07:49:25.786Z,16.00
2023-05-13T07:51:52.978Z,16.39
2023-05-13T07:54:20.924Z,16.70
2023-05-13T07:56:48.101Z,16.88
2023-05-13T07:59:15.281Z,16.59
2023-05-13T08:01:42.902Z,15.99
2023-05-13T08:04:10.759Z,17.09
2023-05-13T08:06:38.089Z,16.26
2023-05-13T08:09:05.262Z,16.44
2023-05-13T08:11:32.625Z,16.65
2023-05-13T08:13:59.930Z,17.13
2023-05-13T08:16:27.188Z,17.18
2023-05-13T08:18:54.986Z,17.12
2023-05-13T08:21:22.188Z,16.43
2023-05-13T08:23:52.190Z,17.18
2023-05-13T08:26:19.684Z,17.24
2023-05-13T08:28:46.826Z,17.06
2023-05-13T08:31:14.085Z,15.99
2023-05-13T08:33:47.506Z,15.72
2023-05-13T08:36:14.720Z,16.30
2023-05-13T08:38:43.492Z,16.58
2023-05-13T08:41:14.208Z,16.55
2023-05-13T08:43:44.779Z,16.55
2023-05-13T08:46:13.295Z,17.09
2023-05-13T08:48:41.298Z,16.92
2023-05-13T08:51:09.336Z,16.54
2023-05-13T08:53:37.513Z,16.71
2023-05-13T08:56:04.837Z,16.56
2023-05-13T08:58:32.262Z,16.52
2023-05-13T09:00:59.431Z,17.15
2023-05-13T09:03:27.733Z,16.69
2023-05-13T09:05:55.219Z,17.78
2023-05-13T09:08:22.470Z,17.58
2023-05-13T09:10:49.619Z,16.98
2023-05-13T09:13:18.709Z,17.75
2023-05-13T09:15:46.280Z,18.45
2023-05-13T09:18:16.449Z,17.78
2023-05-13T09:20:46.194Z,19.26
2023-05-13T09:23:13.580Z,17.77
2023-05-13T09:25:40.931Z,18.21
2023-05-13T09:28:08.685Z,17.77
2023-05-13T09:30:45.618Z,17.33
2023-05-13T09:33:15.145Z,17.53
2023-05-13T09:35:48.842Z,18.36
2023-05-13T09:38:19.853Z,18.24
2023-05-13T09:41:05.083Z,18.48
2023-05-13T09:43:33.254Z,18.49
2023-05-13T09:46:01.459Z,19.08
2023-05-13T09:48:29.785Z,18.20
2023-05-13T09:50:58.568Z,18.32
2023-05-13T09:53:26.301Z,18.32
2023-05-13T09:55:58.262Z,18.63
2023-05-13T09:58:28.207Z,19.37
2023-05-13T10:00:56.101Z,18.77
2023-05-13T10:03:24.048Z,18.44
2023-05-13T10:05:51.454Z,19.53
2023-05-13T10:08:18.625Z,19.05
2023-05-13T10:10:46.489Z,19.53
2023-05-13T10:13:14.329Z,19.49
2023-05-13T10:15:54.592Z,18.48
2023-05-13T10:18:23.888Z,18.59
2023-05-13T10:20:53.746Z,18.50
2023-05-13T10:23:23.701Z,17.83
2023-05-13T10:25:50.964Z,18.17
2023-05-13T10:28:18.112Z,17.93
2023-05-13T10:30:45.692Z,19.21
2023-05-13T10:33:12.952Z,18.00
2023-05-13T10:35:42.808Z,18.50
2023-05-13T10:38:17.408Z,18.98
2023-05-13T10:40:44.550Z,18.91
2023-05-13T10:43:11.981Z,18.79
2023-05-13T10:45:39.184Z,18.35
2023-05-13T10:48:07.344Z,18.75
2023-05-13T10:50:41.417Z,18.92
2023-05-13T10:53:10.310Z,18.81
2023-05-13T10:55:43.780Z,18.47
2023-05-13T10:58:14.849Z,18.62
2023-05-13T11:00:43.661Z,19.48
2023-05-13T11:03:15.338Z,19.35
2023-05-13T11:06:04.549Z,18.81
2023-05-13T11:08:38.884Z,19.01
2023-05-13T11:11:21.426Z,18.73
2023-05-13T11:13:53.468Z,19.43
2023-05-13T11:16:21.173Z,18.80
2023-05-13T11:18:49.277Z,19.23
2023-05-13T11:21:16.590Z,19.13
2023-05-13T11:23:53.133Z,19.24
2023-05-13T11:26:21.515Z,19.41
2023-05-13T11:28:54.976Z,19.54
2023-05-13T11:31:22.827Z,19.70
2023-05-13T11:34:09.799Z,19.90
2023-05-13T11:36:37.881Z,19.60
2023-05-13T11:39:13.688Z,19.39
2023-05-13T11:41:41.809Z,18.92
2023-05-13T11:44:09.335Z,19.60
2023-05-13T11:46:36.665Z,18.36
2023-05-13T11:49:05.878Z,18.32
2023-05-13T11:51:34.724Z,18.42
2023-05-13T11:54:03.111Z,18.57
2023-05-13T11:56:30.512Z,18.56
2023-05-13T11:59:12.598Z,19.43
2023-05-13T12:01:40.953Z,18.25
2023-05-13T12:04:08.770Z,19.44
2023-05-13T12:06:43.726Z,19.28
2023-05-13T12:09:11.948Z,19.65
2023-05-13T12:11:39.423Z,20.50
2023-05-13T12:14:06.664Z,20.07
2023-05-13T12:16:34.203Z,20.10
2023-05-13T12:19:07.654Z,19.97
2023-05-13T12:21:35.206Z,19.31
2023-05-13T12:24:02.509Z,19.11
2023-05-13T12:26:29.684Z,19.11
2023-05-13T12:28:59.962Z,18.70
2023-05-13T12:31:27.478Z,19.32
2023-05-13T12:33:54.814Z,19.54
2023-05-13T12:36:32.049Z,18.86
2023-05-13T12:39:00.633Z,19.31
2023-05-13T12:41:29.470Z,19.38
2023-05-13T12:44:00.484Z,20.02
2023-05-13T12:46:27.840Z,19.45
2023-05-13T12:48:56.016Z,20.87
2023-05-13T12:51:23.478Z,19.18
2023-05-13T12:53:52.243Z,19.83
2023-05-13T12:56:20.434Z,19.98
2023-05-13T12:58:47.854Z,20.07
2023-05-13T13:01:15.225Z,19.19
2023-05-13T13:03:42.905Z,19.61
2023-05-13T13:06:10.426Z,19.77
2023-05-13T13:08:37.589Z,20.10
2023-05-13T13:11:05.028Z,19.59
2023-05-13T13:13:32.703Z,20.08
2023-05-13T13:16:00.122Z,19.60
2023-05-13T13:18:27.698Z,20.41
2023-05-13T13:20:54.934Z,19.52
2023-05-13T13:23:22.173Z,20.48
2023-05-13T13:25:49.615Z,19.90
2023-05-13T13:28:17.052Z,20.40
2023-05-13T13:30:47.018Z,19.59
2023-05-13T13:33:15.545Z,19.89
2023-05-13T13:35:43.414Z,19.93
2023-05-13T13:38:10.804Z,20.37
2023-05-13T13:40:38.989Z,20.57
2023-05-13T13:43:06.868Z,19.96
2023-05-13T13:45:34.284Z,19.79
2023-05-13T13:48:01.757Z,20.59
2023-05-13T13:50:29.067Z,19.77
2023-05-13T13:52:56.530Z,20.43
2023-05-13T13:55:24.285Z,19.90
2023-05-13T13:57:52.152Z,19.52
2023-05-13T14:00:19.538Z,20.04
2023-05-13T14:02:47.144Z,19.93
2023-05-13T14:05:14.513Z,19.96
2023-05-13T14:07:41.744Z,20.04
2023-05-13T14:10:09.578Z,19.59
2023-05-13T14:12:37.479Z,20.19
2023-05-13T14:15:04.974Z,20.01
2023-05-13T14:17:32.716Z,20.15
2023-05-13T14:19:59.954Z,20.11
2023-05-13T14:22:27.203Z,19.57
2023-05-13T14:24:54.694Z,19.61
2023-05-13T14:27:24.727Z,20.58
2023-05-13T14:29:52.037Z,20.59
2023-05-13T14:32:19.541Z,21.37
2023-05-13T14:34:46.727Z,20.19
2023-05-13T14:37:16.364Z,20.43
2023-05-13T14:39:43.796Z,20.16
2023-05-13T14:42:11.798Z,20.50
2023-05-13T14:44:41.356Z,20.77
2023-05-13T14:47:09.186Z,19.92
2023-05-13T14:49:36.448Z,19.48
2023-05-13T14:52:03.678Z,19.81
2023-05-13T14:54:35.710Z,19.87
2023-05-13T14:57:03.570Z,19.98
2023-05-13T14:59:31.158Z,19.22
2023-05-13T15:01:58.361Z,19.45
2023-05-13T15:04:25.661Z,19.84
2023-05-13T15:06:53.559Z,20.26
2023-05-13T15:09:20.750Z,21.27
2023-05-13T15:11:47.995Z,19.90
2023-05-13T15:14:17.831Z,20.72
2023-05-13T15:16:45.281Z,19.74
2023-05-13T15:19:12.473Z,20.31
2023-05-13T15:21:40.068Z,20.54
2023-05-13T15:24:07.307Z,19.65
2023-05-13T15:26:34.436Z,19.41
2023-05-13T15:29:01.909Z,20.06
2023-05-13T15:31:29.915Z,19.49
2023-05-13T15:33:57.266Z,19.58
2023-05-13T15:36:24.714Z,19.92
2023-05-13T15:38:51.852Z,19.94
2023-05-13T15:41:19.007Z,20.43
2023-05-13T15:43:46.473Z,20.45
2023-05-13T15:46:13.729Z,20.50
2023-05-13T15:48:40.977Z,20.23
2023-05-13T15:51:08.433Z,20.42
2023-05-13T15:53:35.593Z,20.71
2023-05-13T15:56:02.784Z,20.01
2023-05-13T15:58:30.599Z,20.11
2023-05-13T16:00:58.255Z,20.18
2023-05-13T16:03:26.864Z,20.40
2023-05-13T16:05:54.160Z,20.16
2023-05-13T16:08:21.311Z,19.90
2023-05-13T16:10:48.883Z,20.16
2023-05-13T16:13:16.062Z,19.04
2023-05-13T16:15:43.255Z,19.90
2023-05-13T16:18:10.729Z,19.57
2023-05-13T16:20:38.025Z,19.61
2023-05-13T16:23:05.680Z,20.00
2023-05-13T16:25:33.154Z,19.63
2023-05-13T16:28:00.554Z,20.47
2023-05-13T16:30:27.745Z,20.09
2023-05-13T16:32:55.153Z,20.47
2023-05-13T16:35:22.485Z,20.62
2023-05-13T16:37:50.049Z,20.34
2023-05-13T16:40:17.577Z,20.66
2023-05-13T16:42:45.238Z,21.16
2023-05-13T16:45:12.489Z,21.43
2023-05-13T16:47:39.948Z,20.76
2023-05-13T16:50:08.577Z,20.35
2023-05-13T16:52:35.822Z,20.58
2023-05-13T16:55:03.317Z,20.77
2023-05-13T16:57:30.569Z,20.49
2023-05-13T16:59:57.708Z,20.26
2023-05-13T17:02:26.764Z,20.36
2023-05-13T17:04:54.007Z,20.41
2023-05-13T17:07:21.289Z,20.61
2023-05-13T17:09:48.726Z,20.40
2023-05-13T17:12:16.761Z,19.65
2023-05-13T17:14:43.977Z,20.32
2023-05-13T17:17:11.648Z,20.58
2023-05-13T17:19:38.950Z,20.43
2023-05-13T17:22:06.101Z,19.54
2023-05-13T17:24:33.575Z,20.14
2023-05-13T17:27:01.335Z,20.12
2023-05-13T17:29:28.508Z,19.90
2023-05-13T17:31:56.006Z,19.95
2023-05-13T17:34:23.119Z,20.20
2023-05-13T17:36:50.373Z,19.51
2023-05-13T17:39:17.892Z,19.23
2023-05-13T17:41:46.112Z,19.77
2023-05-13T17:44:13.256Z,19.90
2023-05-13T17:46:40.779Z,19.12
2023-05-13T17:49:07.942Z,19.39
2023-05-13T17:51:35.101Z,19.86
2023-05-13T17:54:02.551Z,20.28
2023-05-13T17:56:29.887Z,20.33
2023-05-13T17:58:57.001Z,20.47
2023-05-13T18:01:24.670Z,20.48
2023-05-13T18:03:52.083Z,20.82
2023-05-13T18:06:19.335Z,20.55
2023-05-13T18:08:46.494Z,20.20
2023-05-13T18:11:13.936Z,20.37
2023-05-13T18:13:41.092Z,20.23
2023-05-13T18:16:09.221Z,20.51
2023-05-13T18:18:36.940Z,20.20
2023-05-13T18:21:04.185Z,19.78
2023-05-13T18:23:32.742Z,20.10
2023-05-13T18:26:00.190Z,19.82
2023-05-13T18:28:27.445Z,20.05
2023-05-13T18:30:54.689Z,20.16
2023-05-13T18:33:22.322Z,20.08
2023-05-13T18:35:49.526Z,20.48
2023-05-13T18:38:16.865Z,20.27
2023-05-13T18:40:45.393Z,20.08
2023-05-13T18:43:13.615Z,19.99
2023-05-13T18:45:41.518Z,20.15
2023-05-13T18:48:09.017Z,20.35
2023-05-13T18:50:36.231Z,20.41
2023-05-13T18:53:03.466Z,20.15
2023-05-13T18:55:31.144Z,20.17
2023-05-13T18:57:58.523Z,20.10
2023-05-13T19:00:25.704Z,19.97
2023-05-13T19:02:53.271Z,19.93
2023-05-13T19:05:21.010Z,20.21
2023-05-13T19:07:48.261Z,20.33
2023-05-13T19:10:15.784Z,20.39
2023-05-13T19:12:43.145Z,20.14
2023-05-13T19:15:11.379Z,20.09
2023-05-13T19:17:40.591Z,19.73
2023-05-13T19:20:08.341Z,19.99
2023-05-13T19:22:35.550Z,19.79
2023-05-13T19:25:03.292Z,20.04
2023-05-13T19:27:30.452Z,20.20
2023-05-13T19:29:58.272Z,20.19
2023-05-13T19:32:25.847Z,20.47
2023-05-13T19:34:53.451Z,20.11
2023-05-13T19:37:20.680Z,19.49
2023-05-13T19:39:48.304Z,19.37
2023-05-13T19:42:15.796Z,19.49
2023-05-13T19:44:43.035Z,18.94
2023-05-13T19:47:10.861Z,19.43
2023-05-13T19:49:38.048Z,19.34
2023-05-13T19:52:05.425Z,19.28
2023-05-13T19:54:32.962Z,19.22
2023-05-13T19:57:00.604Z,19.27
2023-05-13T19:59:27.906Z,19.33
2023-05-13T20:01:55.402Z,19.15
2023-05-13T20:04:23.487Z,19.47
2023-05-13T20:06:50.654Z,19.37
2023-05-13T20:09:17.825Z,19.28
2023-05-13T20:11:45.382Z,19.40
2023-05-13T20:14:13.275Z,19.76
2023-05-13T20:16:40.717Z,19.41
2023-05-13T20:19:08.429Z,19.53
2023-05-13T20:21:35.838Z,19.13
2023-05-13T20:24:02.997Z,18.83
2023-05-13T20:26:34.589Z,18.58
2023-05-13T20:29:02.113Z,19.14
2023-05-13T20:31:29.403Z,19.01
2023-05-13T20:33:57.598Z,18.89
2023-05-13T20:36:24.817Z,19.44
2023-05-13T20:38:52.216Z,19.31
2023-05-13T20:41:19.807Z,19.13
2023-05-13T20:43:47.144Z,19.16
2023-05-13T20:46:17.013Z,19.08
2023-05-13T20:48:44.676Z,19.18
2023-05-13T20:51:11.889Z,18.99
2023-05-13T20:53:39.069Z,19.37
2023-05-13T20:56:06.573Z,19.12
2023-05-13T20:58:33.745Z,19.15
2023-05-13T21:01:00.964Z,19.07
2023-05-13T21:03:28.548Z,19.34
2023-05-13T21:05:55.727Z,19.40
2023-05-13T21:08:22.871Z,19.05
2023-05-13T21:10:50.347Z,18.98
2023-05-13T21:13:17.510Z,19.13
2023-05-13T21:15:44.710Z,19.02
2023-05-13T21:18:12.256Z,19.17
2023-05-13T21:20:39.461Z,19.22
2023-05-13T21:23:06.596Z,19.04
2023-05-13T21:25:34.214Z,18.54
2023-05-13T21:28:01.631Z,17.14
2023-05-13T21:30:28.867Z,17.79
2023-05-13T21:32:56.322Z,17.10
2023-05-13T21:35:25.926Z,17.55
2023-05-13T21:37:56.170Z,18.13
2023-05-13T21:40:32.127Z,18.47
2023-05-13T21:42:59.318Z,18.11
2023-05-13T21:45:26.498Z,17.67
2023-05-13T21:47:53.984Z,18.42
2023-05-13T21:50:21.310Z,18.90
2023-05-13T21:52:48.597Z,18.36
2023-05-13T21:55:16.088Z,18.21
2023-05-13T21:57:43.249Z,18.26
2023-05-13T22:00:15.095Z,18.02
2023-05-13T22:02:43.731Z,18.21
2023-05-13T22:05:11.837Z,18.14
2023-05-13T22:07:38.967Z,18.58
2023-05-13T22:10:06.809Z,18.56
2023-05-13T22:12:34.346Z,18.46
2023-05-13T22:15:01.590Z,18.62
2023-05-13T22:17:30.910Z,18.60
2023-05-13T22:19:58.539Z,18.61
2023-05-13T22:22:25.724Z,19.03
2023-05-13T22:24:52.870Z,18.12
2023-05-13T22:27:21.355Z,17.64
2023-05-13T22:29:48.539Z,17.96
2023-05-13T22:32:15.705Z,17.56
2023-05-13T22:34:43.221Z,17.69
2023-05-13T22:37:10.355Z,17.15
2023-05-13T22:39:37.510Z,17.42
2023-05-13T22:42:05.067Z,17.78
2023-05-13T22:44:32.224Z,18.43
2023-05-13T22:46:59.429Z,17.87
2023-05-13T22:49:26.832Z,17.38
2023-05-13T22:51:54.018Z,17.32
2023-05-13T22:54:21.211Z,17.78
2023-05-13T22:56:48.640Z,17.45
2023-05-13T22:59:15.843Z,17.42
2023-05-13T23:01:43.140Z,17.76
2023-05-13T23:04:10.636Z,18.14
2023-05-13T23:06:37.916Z,18.04
2023-05-13T23:09:05.686Z,18.02
2023-05-13T23:11:35.837Z,17.87
2023-05-13T23:14:03.022Z,17.83
2023-05-13T23:16:30.311Z,17.37
2023-05-13T23:18:57.757Z,18.09
2023-05-13T23:21:25.032Z,18.18
2023-05-13T23:23:52.454Z,17.51
2023-05-13T23:26:19.974Z,17.26
2023-05-13T23:28:47.105Z,17.08
2023-05-13T23:31:14.408Z,16.60
2023-05-13T23:33:41.843Z,16.23
2023-05-13T23:36:09.038Z,16.68
2023-05-13T23:38:36.215Z,17.42
2023-05-13T23:41:03.669Z,17.20
2023-05-13T23:43:31.119Z,16.64
2023-05-13T23:45:58.346Z,17.05
2023-05-13T23:48:28.629Z,16.81
2023-05-13T23:50:55.789Z,16.46
2023-05-13T23:53:22.974Z,16.47
2023-05-13T23:55:50.437Z,17.35
2023-05-13T23:58:17.589Z,17.14
